sensor_id;sensor_type;location;lat;lon;timestamp;temperature;humidity
4643;DHT22;2334;48.710;9.622;2022-08-19T00:01:18;20.70;99.90
4643;DHT22;2334;48.710;9.622;2022-08-19T00:03:45;20.60;99.90
4643;DHT22;2334;48.710;9.622;2022-08-19T00:06:13;20.60;99.90
4643;DHT22;2334;48.710;9.622;2022-08-19T00:08:42;20.50;99.90
4643;DHT22;2334;48.710;9.622;2022-08-19T00:11:09;20.40;99.90
4643;DHT22;2334;48.710;9.622;2022-08-19T00:13:36;20.40;99.90
4643;DHT22;2334;48.710;9.622;2022-08-19T00:16:04;20.40;99.90
4643;DHT22;2334;48.710;9.622;2022-08-19T00:18:31;20.30;99.90
4643;DHT22;2334;48.710;9.622;2022-08-19T00:20:58;20.30;99.90
4643;DHT22;2334;48.710;9.622;2022-08-19T00:23:26;20.40;99.90
4643;DHT22;2334;48.710;9.622;2022-08-19T00:25:54;20.30;99.90
4643;DHT22;2334;48.710;9.622;2022-08-19T00:28:21;20.30;99.90
4643;DHT22;2334;48.710;9.622;2022-08-19T00:30:48;20.30;99.90
4643;DHT22;2334;48.710;9.622;2022-08-19T00:33:17;20.20;99.90
4643;DHT22;2334;48.710;9.622;2022-08-19T00:35:44;20.30;99.90
4643;DHT22;2334;48.710;9.622;2022-08-19T00:38:11;20.30;99.90
4643;DHT22;2334;48.710;9.622;2022-08-19T00:40:37;20.30;99.90
4643;DHT22;2334;48.710;9.622;2022-08-19T00:43:09;20.20;99.90
4643;DHT22;2334;48.710;9.622;2022-08-19T00:45:39;20.30;99.90
4643;DHT22;2334;48.710;9.622;2022-08-19T00:48:07;20.30;99.90
4643;DHT22;2334;48.710;9.622;2022-08-19T00:50:34;20.20;99.90
4643;DHT22;2334;48.710;9.622;2022-08-19T00:53:02;20.20;99.90
4643;DHT22;2334;48.710;9.622;2022-08-19T00:55:31;20.20;99.90
4643;DHT22;2334;48.710;9.622;2022-08-19T00:58:02;20.20;99.90
4643;DHT22;2334;48.710;9.622;2022-08-19T01:00:32;20.20;99.90
4643;DHT22;2334;48.710;9.622;2022-08-19T01:03:00;20.20;99.90
4643;DHT22;2334;48.710;9.622;2022-08-19T01:05:29;20.10;99.90
4643;DHT22;2334;48.710;9.622;2022-08-19T01:07:58;20.10;99.90
4643;DHT22;2334;48.710;9.622;2022-08-19T01:10:27;20.00;99.90
4643;DHT22;2334;48.710;9.622;2022-08-19T01:12:58;20.00;99.90
4643;DHT22;2334;48.710;9.622;2022-08-19T01:15:28;20.00;99.90
4643;DHT22;2334;48.710;9.622;2022-08-19T01:17:58;20.00;99.90
4643;DHT22;2334;48.710;9.622;2022-08-19T01:20:26;19.90;99.90
4643;DHT22;2334;48.710;9.622;2022-08-19T01:22:56;19.90;99.90
4643;DHT22;2334;48.710;9.622;2022-08-19T01:25:28;19.90;99.90
4643;DHT22;2334;48.710;9.622;2022-08-19T01:27:56;19.80;99.90
4643;DHT22;2334;48.710;9.622;2022-08-19T01:30:26;19.90;99.90
4643;DHT22;2334;48.710;9.622;2022-08-19T01:32:54;19.80;99.90
4643;DHT22;2334;48.710;9.622;2022-08-19T01:35:23;19.80;99.90
4643;DHT22;2334;48.710;9.622;2022-08-19T01:37:53;19.80;99.90
4643;DHT22;2334;48.710;9.622;2022-08-19T01:40:24;19.80;99.90
4643;DHT22;2334;48.710;9.622;2022-08-19T01:42:53;19.80;99.90
4643;DHT22;2334;48.710;9.622;2022-08-19T01:45:23;19.80;99.90
4643;DHT22;2334;48.710;9.622;2022-08-19T01:47:51;19.70;99.90
4643;DHT22;2334;48.710;9.622;2022-08-19T01:50:19;19.70;99.90
4643;DHT22;2334;48.710;9.622;2022-08-19T01:52:47;19.60;99.90
4643;DHT22;2334;48.710;9.622;2022-08-19T01:55:16;19.50;99.90
4643;DHT22;2334;48.710;9.622;2022-08-19T01:57:49;19.40;99.90
4643;DHT22;2334;48.710;9.622;2022-08-19T02:00:19;19.40;99.90
4643;DHT22;2334;48.710;9.622;2022-08-19T02:02:46;19.30;99.90
4643;DHT22;2334;48.710;9.622;2022-08-19T02:05:13;19.40;99.90
4643;DHT22;2334;48.710;9.622;2022-08-19T02:07:44;19.40;99.90
4643;DHT22;2334;48.710;9.622;2022-08-19T02:10:14;19.50;99.90
4643;DHT22;2334;48.710;9.622;2022-08-19T02:12:41;19.50;99.90
4643;DHT22;2334;48.710;9.622;2022-08-19T02:15:10;19.50;99.90
4643;DHT22;2334;48.710;9.622;2022-08-19T02:17:37;19.60;99.90
4643;DHT22;2334;48.710;9.622;2022-08-19T02:20:06;19.50;99.90
4643;DHT22;2334;48.710;9.622;2022-08-19T02:22:33;19.60;99.90
4643;DHT22;2334;48.710;9.622;2022-08-19T02:25:01;19.50;99.90
4643;DHT22;2334;48.710;9.622;2022-08-19T02:27:30;19.50;99.90
4643;DHT22;2334;48.710;9.622;2022-08-19T02:29:59;19.50;99.90
4643;DHT22;2334;48.710;9.622;2022-08-19T02:32:27;19.50;99.90
4643;DHT22;2334;48.710;9.622;2022-08-19T02:34:55;19.50;99.90
4643;DHT22;2334;48.710;9.622;2022-08-19T02:37:22;19.50;99.90
4643;DHT22;2334;48.710;9.622;2022-08-19T02:40:09;19.50;99.90
4643;DHT22;2334;48.710;9.622;2022-08-19T02:42:36;19.50;99.90
4643;DHT22;2334;48.710;9.622;2022-08-19T02:45:03;19.40;99.90
4643;DHT22;2334;48.710;9.622;2022-08-19T02:47:32;19.50;99.90
4643;DHT22;2334;48.710;9.622;2022-08-19T02:50:00;19.40;99.90
4643;DHT22;2334;48.710;9.622;2022-08-19T02:52:27;19.40;99.90
4643;DHT22;2334;48.710;9.622;2022-08-19T02:54:54;19.50;99.90
4643;DHT22;2334;48.710;9.622;2022-08-19T02:57:23;19.40;99.90
4643;DHT22;2334;48.710;9.622;2022-08-19T02:59:50;19.40;99.90
4643;DHT22;2334;48.710;9.622;2022-08-19T03:02:17;19.40;99.90
4643;DHT22;2334;48.710;9.622;2022-08-19T03:04:45;19.30;99.90
4643;DHT22;2334;48.710;9.622;2022-08-19T03:07:14;19.30;99.90
4643;DHT22;2334;48.710;9.622;2022-08-19T03:09:41;19.20;99.90
4643;DHT22;2334;48.710;9.622;2022-08-19T03:12:09;19.20;99.90
4643;DHT22;2334;48.710;9.622;2022-08-19T03:14:37;19.20;99.90
4643;DHT22;2334;48.710;9.622;2022-08-19T03:17:04;19.30;99.90
4643;DHT22;2334;48.710;9.622;2022-08-19T03:19:31;19.30;99.90
4643;DHT22;2334;48.710;9.622;2022-08-19T03:21:59;19.30;99.90
4643;DHT22;2334;48.710;9.622;2022-08-19T03:24:26;19.30;99.90
4643;DHT22;2334;48.710;9.622;2022-08-19T03:26:54;19.40;99.90
4643;DHT22;2334;48.710;9.622;2022-08-19T03:29:23;19.40;99.90
4643;DHT22;2334;48.710;9.622;2022-08-19T03:31:50;19.40;99.90
4643;DHT22;2334;48.710;9.622;2022-08-19T03:34:20;19.40;99.90
4643;DHT22;2334;48.710;9.622;2022-08-19T03:36:47;19.40;99.90
4643;DHT22;2334;48.710;9.622;2022-08-19T03:39:16;19.40;99.90
4643;DHT22;2334;48.710;9.622;2022-08-19T03:41:45;19.30;99.90
4643;DHT22;2334;48.710;9.622;2022-08-19T03:44:12;19.40;99.90
4643;DHT22;2334;48.710;9.622;2022-08-19T03:46:39;19.30;99.90
4643;DHT22;2334;48.710;9.622;2022-08-19T03:49:06;19.30;99.90
4643;DHT22;2334;48.710;9.622;2022-08-19T03:51:35;19.30;99.90
4643;DHT22;2334;48.710;9.622;2022-08-19T03:54:06;19.20;99.90
4643;DHT22;2334;48.710;9.622;2022-08-19T03:56:37;19.10;99.90
4643;DHT22;2334;48.710;9.622;2022-08-19T03:59:05;19.20;99.90
4643;DHT22;2334;48.710;9.622;2022-08-19T04:01:32;19.20;99.90
4643;DHT22;2334;48.710;9.622;2022-08-19T04:04:00;19.20;99.90
4643;DHT22;2334;48.710;9.622;2022-08-19T04:06:29;19.10;99.90
4643;DHT22;2334;48.710;9.622;2022-08-19T04:08:58;19.00;99.90
4643;DHT22;2334;48.710;9.622;2022-08-19T04:11:28;19.00;99.90
4643;DHT22;2334;48.710;9.622;2022-08-19T04:13:56;19.00;99.90
4643;DHT22;2334;48.710;9.622;2022-08-19T04:16:25;19.10;99.90
4643;DHT22;2334;48.710;9.622;2022-08-19T04:18:54;19.10;99.90
4643;DHT22;2334;48.710;9.622;2022-08-19T04:21:23;19.20;99.90
4643;DHT22;2334;48.710;9.622;2022-08-19T04:23:51;19.20;99.90
4643;DHT22;2334;48.710;9.622;2022-08-19T04:26:20;19.30;99.90
4643;DHT22;2334;48.710;9.622;2022-08-19T04:28:48;19.30;99.90
4643;DHT22;2334;48.710;9.622;2022-08-19T04:31:20;19.20;99.90
4643;DHT22;2334;48.710;9.622;2022-08-19T04:33:48;19.20;99.90
4643;DHT22;2334;48.710;9.622;2022-08-19T04:36:20;19.20;99.90
4643;DHT22;2334;48.710;9.622;2022-08-19T04:38:47;19.20;99.90
4643;DHT22;2334;48.710;9.622;2022-08-19T04:41:14;19.20;99.90
4643;DHT22;2334;48.710;9.622;2022-08-19T04:44:11;19.10;99.90
4643;DHT22;2334;48.710;9.622;2022-08-19T04:46:40;19.20;99.90
4643;DHT22;2334;48.710;9.622;2022-08-19T04:49:07;19.20;99.90
4643;DHT22;2334;48.710;9.622;2022-08-19T04:51:35;19.20;99.90
4643;DHT22;2334;48.710;9.622;2022-08-19T04:54:03;19.10;99.90
4643;DHT22;2334;48.710;9.622;2022-08-19T04:56:30;19.00;99.90
4643;DHT22;2334;48.710;9.622;2022-08-19T04:58:58;19.00;99.90
4643;DHT22;2334;48.710;9.622;2022-08-19T05:01:29;19.00;99.90
4643;DHT22;2334;48.710;9.622;2022-08-19T05:03:59;18.90;99.90
4643;DHT22;2334;48.710;9.622;2022-08-19T05:06:27;19.00;99.90
4643;DHT22;2334;48.710;9.622;2022-08-19T05:08:58;19.10;99.90
4643;DHT22;2334;48.710;9.622;2022-08-19T05:11:27;19.10;99.90
4643;DHT22;2334;48.710;9.622;2022-08-19T05:13:55;19.00;99.90
4643;DHT22;2334;48.710;9.622;2022-08-19T05:16:23;18.90;99.90
4643;DHT22;2334;48.710;9.622;2022-08-19T05:18:51;18.80;99.90
4643;DHT22;2334;48.710;9.622;2022-08-19T05:21:38;18.80;99.90
4643;DHT22;2334;48.710;9.622;2022-08-19T05:24:23;18.90;99.90
4643;DHT22;2334;48.710;9.622;2022-08-19T05:26:52;18.90;99.90
4643;DHT22;2334;48.710;9.622;2022-08-19T05:29:23;18.90;99.90
4643;DHT22;2334;48.710;9.622;2022-08-19T05:31:50;19.00;99.90
4643;DHT22;2334;48.710;9.622;2022-08-19T05:34:18;19.00;99.90
4643;DHT22;2334;48.710;9.622;2022-08-19T05:36:49;19.00;99.90
4643;DHT22;2334;48.710;9.622;2022-08-19T05:39:19;18.90;99.90
4643;DHT22;2334;48.710;9.622;2022-08-19T05:41:48;18.90;99.90
4643;DHT22;2334;48.710;9.622;2022-08-19T05:44:16;18.90;99.90
4643;DHT22;2334;48.710;9.622;2022-08-19T05:46:44;18.90;99.90
4643;DHT22;2334;48.710;9.622;2022-08-19T05:49:13;19.00;99.90
4643;DHT22;2334;48.710;9.622;2022-08-19T05:51:41;19.00;99.90
4643;DHT22;2334;48.710;9.622;2022-08-19T05:54:10;19.00;99.90
4643;DHT22;2334;48.710;9.622;2022-08-19T05:56:39;19.00;99.90
4643;DHT22;2334;48.710;9.622;2022-08-19T05:59:08;19.00;99.90
4643;DHT22;2334;48.710;9.622;2022-08-19T06:01:37;19.00;99.90
4643;DHT22;2334;48.710;9.622;2022-08-19T06:04:05;19.00;99.90
4643;DHT22;2334;48.710;9.622;2022-08-19T06:06:33;19.00;99.90
4643;DHT22;2334;48.710;9.622;2022-08-19T06:09:00;19.00;99.90
4643;DHT22;2334;48.710;9.622;2022-08-19T06:11:37;19.00;99.90
4643;DHT22;2334;48.710;9.622;2022-08-19T06:14:08;19.10;99.90
4643;DHT22;2334;48.710;9.622;2022-08-19T06:16:42;19.10;99.90
4643;DHT22;2334;48.710;9.622;2022-08-19T06:19:12;19.10;99.90
4643;DHT22;2334;48.710;9.622;2022-08-19T06:21:43;19.10;99.90
4643;DHT22;2334;48.710;9.622;2022-08-19T06:24:13;19.20;99.90
4643;DHT22;2334;48.710;9.622;2022-08-19T06:26:44;19.20;99.90
4643;DHT22;2334;48.710;9.622;2022-08-19T06:29:14;19.10;99.90
4643;DHT22;2334;48.710;9.622;2022-08-19T06:31:42;19.10;99.90
4643;DHT22;2334;48.710;9.622;2022-08-19T06:34:10;19.10;99.90
4643;DHT22;2334;48.710;9.622;2022-08-19T06:36:39;19.10;99.90
4643;DHT22;2334;48.710;9.622;2022-08-19T06:39:09;19.10;99.90
4643;DHT22;2334;48.710;9.622;2022-08-19T06:41:37;19.10;99.90
4643;DHT22;2334;48.710;9.622;2022-08-19T06:44:07;19.10;99.90
4643;DHT22;2334;48.710;9.622;2022-08-19T06:46:35;19.10;99.90
4643;DHT22;2334;48.710;9.622;2022-08-19T06:49:04;19.10;99.90
4643;DHT22;2334;48.710;9.622;2022-08-19T06:51:32;19.10;99.90
4643;DHT22;2334;48.710;9.622;2022-08-19T06:53:59;19.10;99.90
4643;DHT22;2334;48.710;9.622;2022-08-19T06:56:30;19.10;99.90
4643;DHT22;2334;48.710;9.622;2022-08-19T06:58:57;19.10;99.90
4643;DHT22;2334;48.710;9.622;2022-08-19T07:01:25;19.00;99.90
4643;DHT22;2334;48.710;9.622;2022-08-19T07:03:52;19.00;99.90
4643;DHT22;2334;48.710;9.622;2022-08-19T07:06:20;19.10;99.90
4643;DHT22;2334;48.710;9.622;2022-08-19T07:08:48;19.00;99.90
4643;DHT22;2334;48.710;9.622;2022-08-19T07:11:18;19.00;99.90
4643;DHT22;2334;48.710;9.622;2022-08-19T07:13:46;19.00;99.90
4643;DHT22;2334;48.710;9.622;2022-08-19T07:16:16;19.00;99.90
4643;DHT22;2334;48.710;9.622;2022-08-19T07:18:46;19.00;99.90
4643;DHT22;2334;48.710;9.622;2022-08-19T07:21:15;19.00;99.90
4643;DHT22;2334;48.710;9.622;2022-08-19T07:23:43;19.00;99.90
4643;DHT22;2334;48.710;9.622;2022-08-19T07:26:13;19.00;99.90
4643;DHT22;2334;48.710;9.622;2022-08-19T07:28:40;19.00;99.90
4643;DHT22;2334;48.710;9.622;2022-08-19T07:31:11;19.10;99.90
4643;DHT22;2334;48.710;9.622;2022-08-19T07:33:39;19.10;99.90
4643;DHT22;2334;48.710;9.622;2022-08-19T07:36:11;19.10;99.90
4643;DHT22;2334;48.710;9.622;2022-08-19T07:38:42;19.10;99.90
4643;DHT22;2334;48.710;9.622;2022-08-19T07:41:11;19.10;99.90
4643;DHT22;2334;48.710;9.622;2022-08-19T07:43:38;19.10;99.90
4643;DHT22;2334;48.710;9.622;2022-08-19T07:46:06;19.10;99.90
4643;DHT22;2334;48.710;9.622;2022-08-19T07:48:33;19.20;99.90
4643;DHT22;2334;48.710;9.622;2022-08-19T07:51:04;19.10;99.90
4643;DHT22;2334;48.710;9.622;2022-08-19T07:53:35;19.10;99.90
4643;DHT22;2334;48.710;9.622;2022-08-19T07:56:04;19.10;99.90
4643;DHT22;2334;48.710;9.622;2022-08-19T07:58:35;19.10;99.90
4643;DHT22;2334;48.710;9.622;2022-08-19T08:01:03;19.10;99.90
4643;DHT22;2334;48.710;9.622;2022-08-19T08:03:30;19.10;99.90
4643;DHT22;2334;48.710;9.622;2022-08-19T08:06:15;19.10;99.90
4643;DHT22;2334;48.710;9.622;2022-08-19T08:09:02;19.10;99.90
4643;DHT22;2334;48.710;9.622;2022-08-19T08:11:43;19.10;99.90
4643;DHT22;2334;48.710;9.622;2022-08-19T08:14:15;19.10;99.90
4643;DHT22;2334;48.710;9.622;2022-08-19T08:16:43;19.10;99.90
4643;DHT22;2334;48.710;9.622;2022-08-19T08:19:12;19.10;99.90
4643;DHT22;2334;48.710;9.622;2022-08-19T08:21:41;19.10;99.90
4643;DHT22;2334;48.710;9.622;2022-08-19T08:24:10;19.10;99.90
4643;DHT22;2334;48.710;9.622;2022-08-19T08:26:38;19.10;99.90
4643;DHT22;2334;48.710;9.622;2022-08-19T08:29:05;19.10;99.90
4643;DHT22;2334;48.710;9.622;2022-08-19T08:31:33;19.10;99.90
4643;DHT22;2334;48.710;9.622;2022-08-19T08:34:00;19.10;99.90
4643;DHT22;2334;48.710;9.622;2022-08-19T08:36:27;19.00;99.90
4643;DHT22;2334;48.710;9.622;2022-08-19T08:38:54;19.00;99.90
4643;DHT22;2334;48.710;9.622;2022-08-19T08:41:28;19.10;99.90
4643;DHT22;2334;48.710;9.622;2022-08-19T08:43:59;19.10;99.90
4643;DHT22;2334;48.710;9.622;2022-08-19T08:46:34;19.10;99.90
4643;DHT22;2334;48.710;9.622;2022-08-19T08:49:20;19.10;99.90
4643;DHT22;2334;48.710;9.622;2022-08-19T08:51:54;19.20;99.90
4643;DHT22;2334;48.710;9.622;2022-08-19T08:54:29;19.10;99.90
4643;DHT22;2334;48.710;9.622;2022-08-19T08:56:58;19.20;99.90
4643;DHT22;2334;48.710;9.622;2022-08-19T08:59:29;19.20;99.90
4643;DHT22;2334;48.710;9.622;2022-08-19T09:01:58;19.20;99.90
4643;DHT22;2334;48.710;9.622;2022-08-19T09:04:25;19.10;99.90
4643;DHT22;2334;48.710;9.622;2022-08-19T09:07:10;19.10;99.90
4643;DHT22;2334;48.710;9.622;2022-08-19T09:09:43;19.10;99.90
4643;DHT22;2334;48.710;9.622;2022-08-19T09:12:19;19.00;99.90
4643;DHT22;2334;48.710;9.622;2022-08-19T09:14:53;19.00;99.90
4643;DHT22;2334;48.710;9.622;2022-08-19T09:17:24;19.10;99.90
4643;DHT22;2334;48.710;9.622;2022-08-19T09:19:59;19.10;99.90
4643;DHT22;2334;48.710;9.622;2022-08-19T09:22:30;19.10;99.90
4643;DHT22;2334;48.710;9.622;2022-08-19T09:24:57;19.10;99.90
4643;DHT22;2334;48.710;9.622;2022-08-19T09:27:26;19.10;99.90
4643;DHT22;2334;48.710;9.622;2022-08-19T09:29:54;19.20;99.90
4643;DHT22;2334;48.710;9.622;2022-08-19T09:32:21;19.20;99.90
4643;DHT22;2334;48.710;9.622;2022-08-19T09:34:48;19.20;99.90
4643;DHT22;2334;48.710;9.622;2022-08-19T09:37:15;19.20;99.90
4643;DHT22;2334;48.710;9.622;2022-08-19T09:39:42;19.20;99.90
4643;DHT22;2334;48.710;9.622;2022-08-19T09:42:09;19.20;99.90
4643;DHT22;2334;48.710;9.622;2022-08-19T09:44:41;19.30;99.90
4643;DHT22;2334;48.710;9.622;2022-08-19T09:47:09;19.20;99.90
4643;DHT22;2334;48.710;9.622;2022-08-19T09:49:36;19.20;99.90
4643;DHT22;2334;48.710;9.622;2022-08-19T09:52:04;19.10;99.90
4643;DHT22;2334;48.710;9.622;2022-08-19T09:54:33;19.10;99.90
4643;DHT22;2334;48.710;9.622;2022-08-19T09:57:01;19.20;99.90
4643;DHT22;2334;48.710;9.622;2022-08-19T09:59:28;19.20;99.90
4643;DHT22;2334;48.710;9.622;2022-08-19T10:01:56;19.20;99.90
4643;DHT22;2334;48.710;9.622;2022-08-19T10:04:23;19.10;99.90
4643;DHT22;2334;48.710;9.622;2022-08-19T10:07:10;19.10;99.90
4643;DHT22;2334;48.710;9.622;2022-08-19T10:09:37;19.20;99.90
4643;DHT22;2334;48.710;9.622;2022-08-19T10:12:07;19.30;99.90
4643;DHT22;2334;48.710;9.622;2022-08-19T10:14:34;19.20;99.90
4643;DHT22;2334;48.710;9.622;2022-08-19T10:17:03;19.30;99.90
4643;DHT22;2334;48.710;9.622;2022-08-19T10:19:30;19.30;99.90
4643;DHT22;2334;48.710;9.622;2022-08-19T10:22:03;19.30;99.90
4643;DHT22;2334;48.710;9.622;2022-08-19T10:24:31;19.40;99.90
4643;DHT22;2334;48.710;9.622;2022-08-19T10:26:59;19.40;99.90
4643;DHT22;2334;48.710;9.622;2022-08-19T10:29:29;19.40;99.90
4643;DHT22;2334;48.710;9.622;2022-08-19T10:31:56;19.50;99.90
4643;DHT22;2334;48.710;9.622;2022-08-19T10:34:25;19.60;99.90
4643;DHT22;2334;48.710;9.622;2022-08-19T10:36:52;19.60;99.90
4643;DHT22;2334;48.710;9.622;2022-08-19T10:39:19;19.60;99.90
4643;DHT22;2334;48.710;9.622;2022-08-19T10:41:46;19.60;99.90
4643;DHT22;2334;48.710;9.622;2022-08-19T10:44:14;19.70;99.90
4643;DHT22;2334;48.710;9.622;2022-08-19T10:46:44;19.70;99.90
4643;DHT22;2334;48.710;9.622;2022-08-19T10:49:12;19.70;99.90
4643;DHT22;2334;48.710;9.622;2022-08-19T10:51:41;19.60;99.90
4643;DHT22;2334;48.710;9.622;2022-08-19T10:54:26;19.60;99.90
4643;DHT22;2334;48.710;9.622;2022-08-19T10:57:13;19.50;99.90
4643;DHT22;2334;48.710;9.622;2022-08-19T10:59:39;19.50;99.90
4643;DHT22;2334;48.710;9.622;2022-08-19T11:02:08;19.60;99.90
4643;DHT22;2334;48.710;9.622;2022-08-19T11:04:37;19.60;99.90
4643;DHT22;2334;48.710;9.622;2022-08-19T11:07:06;19.60;99.90
4643;DHT22;2334;48.710;9.622;2022-08-19T11:09:37;19.70;99.90
4643;DHT22;2334;48.710;9.622;2022-08-19T11:12:06;19.70;99.90
4643;DHT22;2334;48.710;9.622;2022-08-19T11:14:33;19.60;99.90
4643;DHT22;2334;48.710;9.622;2022-08-19T11:17:01;19.60;99.90
4643;DHT22;2334;48.710;9.622;2022-08-19T11:19:29;19.60;99.90
4643;DHT22;2334;48.710;9.622;2022-08-19T11:21:56;19.60;99.90
4643;DHT22;2334;48.710;9.622;2022-08-19T11:24:25;19.60;99.90
4643;DHT22;2334;48.710;9.622;2022-08-19T11:26:55;19.60;99.90
4643;DHT22;2334;48.710;9.622;2022-08-19T11:29:28;19.50;99.90
4643;DHT22;2334;48.710;9.622;2022-08-19T11:31:55;19.60;99.90
4643;DHT22;2334;48.710;9.622;2022-08-19T11:34:25;19.60;99.90
4643;DHT22;2334;48.710;9.622;2022-08-19T11:36:53;19.60;99.90
4643;DHT22;2334;48.710;9.622;2022-08-19T11:39:27;19.60;99.90
4643;DHT22;2334;48.710;9.622;2022-08-19T11:41:54;19.50;99.90
4643;DHT22;2334;48.710;9.622;2022-08-19T11:44:21;19.40;99.90
4643;DHT22;2334;48.710;9.622;2022-08-19T11:46:48;19.40;99.90
4643;DHT22;2334;48.710;9.622;2022-08-19T11:49:16;19.40;99.90
4643;DHT22;2334;48.710;9.622;2022-08-19T11:51:45;19.40;99.90
4643;DHT22;2334;48.710;9.622;2022-08-19T11:54:13;19.40;99.90
4643;DHT22;2334;48.710;9.622;2022-08-19T11:56:43;19.40;99.90
4643;DHT22;2334;48.710;9.622;2022-08-19T11:59:11;19.40;99.90
4643;DHT22;2334;48.710;9.622;2022-08-19T12:01:37;19.40;99.90
4643;DHT22;2334;48.710;9.622;2022-08-19T12:04:06;19.40;99.90
4643;DHT22;2334;48.710;9.622;2022-08-19T12:06:33;19.50;99.90
4643;DHT22;2334;48.710;9.622;2022-08-19T12:09:02;19.50;99.90
4643;DHT22;2334;48.710;9.622;2022-08-19T12:11:29;19.50;99.90
4643;DHT22;2334;48.710;9.622;2022-08-19T12:13:58;19.50;99.90
4643;DHT22;2334;48.710;9.622;2022-08-19T12:16:27;19.50;99.90
4643;DHT22;2334;48.710;9.622;2022-08-19T12:18:55;19.40;99.90
4643;DHT22;2334;48.710;9.622;2022-08-19T12:21:25;19.40;99.90
4643;DHT22;2334;48.710;9.622;2022-08-19T12:23:56;19.40;99.90
4643;DHT22;2334;48.710;9.622;2022-08-19T12:26:24;19.40;99.90
4643;DHT22;2334;48.710;9.622;2022-08-19T12:28:51;19.30;99.90
4643;DHT22;2334;48.710;9.622;2022-08-19T12:31:19;19.40;99.90
4643;DHT22;2334;48.710;9.622;2022-08-19T12:33:47;19.40;99.90
4643;DHT22;2334;48.710;9.622;2022-08-19T12:36:15;19.40;99.90
4643;DHT22;2334;48.710;9.622;2022-08-19T12:38:44;19.30;99.90
4643;DHT22;2334;48.710;9.622;2022-08-19T12:41:13;19.30;99.90
4643;DHT22;2334;48.710;9.622;2022-08-19T12:43:41;19.30;99.90
4643;DHT22;2334;48.710;9.622;2022-08-19T12:46:09;19.20;99.90
4643;DHT22;2334;48.710;9.622;2022-08-19T12:48:38;19.20;99.90
4643;DHT22;2334;48.710;9.622;2022-08-19T12:51:09;19.20;99.90
4643;DHT22;2334;48.710;9.622;2022-08-19T12:53:37;19.20;99.90
4643;DHT22;2334;48.710;9.622;2022-08-19T12:56:05;19.10;99.90
4643;DHT22;2334;48.710;9.622;2022-08-19T12:58:32;19.10;99.90
4643;DHT22;2334;48.710;9.622;2022-08-19T13:01:00;19.10;99.90
4643;DHT22;2334;48.710;9.622;2022-08-19T13:03:32;19.20;99.90
4643;DHT22;2334;48.710;9.622;2022-08-19T13:06:02;19.20;99.90
4643;DHT22;2334;48.710;9.622;2022-08-19T13:08:29;19.30;99.90
4643;DHT22;2334;48.710;9.622;2022-08-19T13:10:55;19.20;99.90
4643;DHT22;2334;48.710;9.622;2022-08-19T13:13:23;19.10;99.90
4643;DHT22;2334;48.710;9.622;2022-08-19T13:15:51;19.00;99.90
4643;DHT22;2334;48.710;9.622;2022-08-19T13:18:18;19.10;99.90
4643;DHT22;2334;48.710;9.622;2022-08-19T13:20:45;19.10;99.90
4643;DHT22;2334;48.710;9.622;2022-08-19T13:23:13;19.10;99.90
4643;DHT22;2334;48.710;9.622;2022-08-19T13:25:40;19.20;99.90
4643;DHT22;2334;48.710;9.622;2022-08-19T13:28:07;19.10;99.90
4643;DHT22;2334;48.710;9.622;2022-08-19T13:30:34;19.20;99.90
4643;DHT22;2334;48.710;9.622;2022-08-19T13:33:19;19.20;99.90
4643;DHT22;2334;48.710;9.622;2022-08-19T13:35:48;19.20;99.90
4643;DHT22;2334;48.710;9.622;2022-08-19T13:38:18;19.20;99.90
4643;DHT22;2334;48.710;9.622;2022-08-19T13:40:46;19.20;99.90
4643;DHT22;2334;48.710;9.622;2022-08-19T13:43:15;19.10;99.90
4643;DHT22;2334;48.710;9.622;2022-08-19T13:45:42;19.10;99.90
4643;DHT22;2334;48.710;9.622;2022-08-19T13:48:10;19.10;99.90
4643;DHT22;2334;48.710;9.622;2022-08-19T13:50:40;19.00;99.90
4643;DHT22;2334;48.710;9.622;2022-08-19T13:53:08;18.90;99.90
4643;DHT22;2334;48.710;9.622;2022-08-19T13:55:37;18.90;99.90
4643;DHT22;2334;48.710;9.622;2022-08-19T13:58:04;19.00;99.90
4643;DHT22;2334;48.710;9.622;2022-08-19T14:00:33;18.90;99.90
4643;DHT22;2334;48.710;9.622;2022-08-19T14:03:01;18.90;99.90
4643;DHT22;2334;48.710;9.622;2022-08-19T14:05:30;18.90;99.90
4643;DHT22;2334;48.710;9.622;2022-08-19T14:07:57;18.90;99.90
4643;DHT22;2334;48.710;9.622;2022-08-19T14:10:26;19.00;99.90
4643;DHT22;2334;48.710;9.622;2022-08-19T14:12:55;19.10;99.90
4643;DHT22;2334;48.710;9.622;2022-08-19T14:15:23;19.10;99.90
4643;DHT22;2334;48.710;9.622;2022-08-19T14:17:51;19.00;99.90
4643;DHT22;2334;48.710;9.622;2022-08-19T14:20:21;19.00;99.90
4643;DHT22;2334;48.710;9.622;2022-08-19T14:22:49;19.00;99.90
4643;DHT22;2334;48.710;9.622;2022-08-19T14:25:19;18.90;99.90
4643;DHT22;2334;48.710;9.622;2022-08-19T14:27:47;18.90;99.90
4643;DHT22;2334;48.710;9.622;2022-08-19T14:30:20;18.90;99.90
4643;DHT22;2334;48.710;9.622;2022-08-19T14:32:47;19.00;99.90
4643;DHT22;2334;48.710;9.622;2022-08-19T14:35:15;19.00;99.90
4643;DHT22;2334;48.710;9.622;2022-08-19T14:37:43;19.00;99.90
4643;DHT22;2334;48.710;9.622;2022-08-19T14:40:11;19.10;99.90
4643;DHT22;2334;48.710;9.622;2022-08-19T14:42:38;19.20;99.90
4643;DHT22;2334;48.710;9.622;2022-08-19T14:45:06;19.20;99.90
4643;DHT22;2334;48.710;9.622;2022-08-19T14:47:35;19.20;99.90
4643;DHT22;2334;48.710;9.622;2022-08-19T14:50:04;19.30;99.90
4643;DHT22;2334;48.710;9.622;2022-08-19T14:52:32;19.30;99.90
4643;DHT22;2334;48.710;9.622;2022-08-19T14:54:59;19.30;99.90
4643;DHT22;2334;48.710;9.622;2022-08-19T14:57:25;19.40;99.90
4643;DHT22;2334;48.710;9.622;2022-08-19T14:59:52;19.30;99.90
4643;DHT22;2334;48.710;9.622;2022-08-19T15:02:19;19.50;99.90
4643;DHT22;2334;48.710;9.622;2022-08-19T15:04:48;19.50;99.90
4643;DHT22;2334;48.710;9.622;2022-08-19T15:07:15;19.60;99.90
4643;DHT22;2334;48.710;9.622;2022-08-19T15:09:42;19.60;99.90
4643;DHT22;2334;48.710;9.622;2022-08-19T15:12:09;19.60;99.90
4643;DHT22;2334;48.710;9.622;2022-08-19T15:14:37;19.60;99.90
4643;DHT22;2334;48.710;9.622;2022-08-19T15:17:04;19.60;99.90
4643;DHT22;2334;48.710;9.622;2022-08-19T15:19:32;19.60;99.90
4643;DHT22;2334;48.710;9.622;2022-08-19T15:22:02;19.60;99.90
4643;DHT22;2334;48.710;9.622;2022-08-19T15:24:30;19.50;99.90
4643;DHT22;2334;48.710;9.622;2022-08-19T15:26:57;19.50;99.90
4643;DHT22;2334;48.710;9.622;2022-08-19T15:29:24;19.40;99.90
4643;DHT22;2334;48.710;9.622;2022-08-19T15:31:53;19.40;99.90
4643;DHT22;2334;48.710;9.622;2022-08-19T15:34:22;19.40;99.90
4643;DHT22;2334;48.710;9.622;2022-08-19T15:36:49;19.40;99.90
4643;DHT22;2334;48.710;9.622;2022-08-19T15:39:18;19.50;99.90
4643;DHT22;2334;48.710;9.622;2022-08-19T15:41:46;19.60;99.90
4643;DHT22;2334;48.710;9.622;2022-08-19T15:44:15;19.60;99.90
4643;DHT22;2334;48.710;9.622;2022-08-19T15:46:44;19.60;99.90
4643;DHT22;2334;48.710;9.622;2022-08-19T15:49:13;19.60;99.90
4643;DHT22;2334;48.710;9.622;2022-08-19T15:51:41;19.60;99.90
4643;DHT22;2334;48.710;9.622;2022-08-19T15:54:12;19.70;99.90
4643;DHT22;2334;48.710;9.622;2022-08-19T15:56:40;19.70;99.90
4643;DHT22;2334;48.710;9.622;2022-08-19T15:59:27;19.80;99.90
4643;DHT22;2334;48.710;9.622;2022-08-19T16:02:11;19.80;99.90
4643;DHT22;2334;48.710;9.622;2022-08-19T16:04:56;19.80;99.90
4643;DHT22;2334;48.710;9.622;2022-08-19T16:07:41;19.80;99.90
4643;DHT22;2334;48.710;9.622;2022-08-19T16:10:08;19.80;99.90
4643;DHT22;2334;48.710;9.622;2022-08-19T16:12:37;19.80;99.90
4643;DHT22;2334;48.710;9.622;2022-08-19T16:15:07;19.80;99.90